createdAt,value
2022-11-16T00:01:20.213Z,99336.91
2022-11-16T00:03:51.335Z,99341.59
2022-11-16T00:06:22.626Z,99336.50
2022-11-16T00:09:10.166Z,99331.06
2022-11-16T00:11:41.125Z,99323.34
2022-11-16T00:14:11.300Z,99327.47
2022-11-16T00:16:41.406Z,99317.91
2022-11-16T00:19:14.158Z,99321.38
2022-11-16T00:21:44.532Z,99321.38
2022-11-16T00:24:19.385Z,99322.09
2022-11-16T00:26:50.176Z,99316.94
2022-11-16T00:29:22.431Z,99316.00
2022-11-16T00:31:53.855Z,99309.75
2022-11-16T00:34:25.343Z,99314.19
2022-11-16T00:36:55.506Z,99309.47
2022-11-16T00:39:28.322Z,99315.16
2022-11-16T00:41:58.444Z,99304.50
2022-11-16T00:44:28.629Z,99312.16
2022-11-16T00:46:58.699Z,99305.34
2022-11-16T00:49:28.897Z,99307.97
2022-11-16T00:51:58.912Z,99307.13
2022-11-16T00:54:31.611Z,99318.25
2022-11-16T00:57:01.723Z,99311.19
2022-11-16T00:59:31.924Z,99315.34
2022-11-16T01:02:02.005Z,99315.22
2022-11-16T01:04:32.276Z,99318.56
2022-11-16T01:07:02.904Z,99308.28
2022-11-16T01:09:35.677Z,99303.16
2022-11-16T01:12:08.976Z,99306.75
2022-11-16T01:14:40.137Z,99297.56
2022-11-16T01:17:10.700Z,99304.00
2022-11-16T01:19:41.086Z,99295.13
2022-11-16T01:22:11.720Z,99280.88
2022-11-16T01:24:44.542Z,99278.38
2022-11-16T01:27:14.578Z,99271.72
2022-11-16T01:29:45.488Z,99271.13
2022-11-16T01:32:15.540Z,99264.63
2022-11-16T01:34:45.737Z,99260.72
2022-11-16T01:37:15.865Z,99258.09
2022-11-16T01:39:48.644Z,99261.44
2022-11-16T01:42:21.487Z,99250.66
2022-11-16T01:45:05.070Z,99246.34
2022-11-16T01:47:35.624Z,99242.19
2022-11-16T01:50:10.703Z,99236.91
2022-11-16T01:52:44.756Z,99222.94
2022-11-16T01:55:17.414Z,99229.16
2022-11-16T01:57:50.070Z,99224.97
2022-11-16T02:00:21.286Z,99213.34
2022-11-16T02:02:51.584Z,99222.09
2022-11-16T02:05:30.837Z,99213.09
2022-11-16T02:08:32.477Z,99203.69
2022-11-16T02:11:27.403Z,99196.47
2022-11-16T02:14:08.166Z,99191.22
2022-11-16T02:16:51.107Z,99194.94
2022-11-16T02:19:41.344Z,99193.16
2022-11-16T02:22:26.225Z,99200.91
2022-11-16T02:25:05.373Z,99199.69
2022-11-16T02:28:14.634Z,99189.03
2022-11-16T02:30:53.173Z,99193.59
2022-11-16T02:33:30.555Z,99189.16
2022-11-16T02:36:03.587Z,99181.25
2022-11-16T02:38:37.895Z,99178.91
2022-11-16T02:41:13.970Z,99176.97
2022-11-16T02:43:48.735Z,99180.56
2022-11-16T02:46:25.490Z,99173.75
2022-11-16T02:49:00.343Z,99173.91
2022-11-16T02:51:31.674Z,99171.25
2022-11-16T02:54:05.867Z,99166.13
2022-11-16T02:56:46.004Z,99167.53
2022-11-16T02:59:17.865Z,99164.91
2022-11-16T03:01:59.501Z,99165.47
2022-11-16T03:04:35.321Z,99155.91
2022-11-16T03:07:08.561Z,99149.69
2022-11-16T03:09:41.767Z,99147.88
2022-11-16T03:12:24.504Z,99158.53
2022-11-16T03:14:58.180Z,99150.06
2022-11-16T03:17:34.555Z,99155.91
2022-11-16T03:20:09.015Z,99136.09
2022-11-16T03:22:42.845Z,99129.16
2022-11-16T03:25:15.753Z,99139.69
2022-11-16T03:27:56.750Z,99133.19
2022-11-16T03:30:29.430Z,99133.31
2022-11-16T03:33:11.314Z,99121.13
2022-11-16T03:35:46.661Z,99119.59
2022-11-16T03:38:23.114Z,99111.69
2022-11-16T03:40:54.418Z,99113.38
2022-11-16T03:43:25.759Z,99115.88
2022-11-16T03:45:56.474Z,99113.22
2022-11-16T03:48:35.255Z,99113.09
2022-11-16T03:51:07.316Z,99108.94
2022-11-16T03:53:37.502Z,99107.97
2022-11-16T03:56:08.055Z,99102.56
2022-11-16T03:58:38.178Z,99102.72
2022-11-16T04:01:08.606Z,99103.16
2022-11-16T04:03:41.487Z,99097.06
2022-11-16T04:06:24.827Z,99086.53
2022-11-16T04:09:07.314Z,99094.00
2022-11-16T04:11:51.225Z,99083.88
2022-11-16T04:14:36.428Z,99090.00
2022-11-16T04:17:19.329Z,99083.91
2022-11-16T04:20:04.453Z,99079.63
2022-11-16T04:22:51.147Z,99073.53
2022-11-16T04:25:24.770Z,99070.91
2022-11-16T04:28:08.778Z,99069.94
2022-11-16T04:30:51.404Z,99068.25
2022-11-16T04:33:34.033Z,99068.13
2022-11-16T04:36:20.821Z,99065.34
2022-11-16T04:38:51.010Z,99060.94
2022-11-16T04:41:33.629Z,99059.13
2022-11-16T04:44:03.682Z,99059.13
2022-11-16T04:46:46.252Z,99047.63
2022-11-16T04:49:16.501Z,99042.63
2022-11-16T04:51:49.464Z,99046.22
2022-11-16T04:54:19.588Z,99042.22
2022-11-16T04:56:49.840Z,99036.13
2022-11-16T04:59:22.854Z,99044.97
2022-11-16T05:02:08.220Z,99049.28
2022-11-16T05:04:38.793Z,99045.53
2022-11-16T05:07:13.617Z,99049.84
2022-11-16T05:09:45.601Z,99050.53
2022-11-16T05:12:17.695Z,99036.69
2022-11-16T05:14:48.416Z,99036.69
2022-11-16T05:17:20.238Z,99036.41
2022-11-16T05:20:03.376Z,99033.78
2022-11-16T05:22:36.727Z,99029.22
2022-11-16T05:25:07.498Z,99033.34
2022-11-16T05:27:38.113Z,99038.59
2022-11-16T05:30:11.423Z,99033.88
2022-11-16T05:32:41.599Z,99036.53
2022-11-16T05:35:12.011Z,99032.22
2022-11-16T05:37:44.817Z,99035.69
2022-11-16T05:40:15.501Z,99025.31
2022-11-16T05:42:45.608Z,99029.72
2022-11-16T05:45:20.963Z,99026.56
2022-11-16T05:47:51.518Z,99027.41
2022-11-16T05:50:21.856Z,99028.06
2022-11-16T05:52:54.586Z,99023.63
2022-11-16T05:55:25.417Z,99017.53
2022-11-16T05:57:55.559Z,99021.84
2022-11-16T06:00:25.995Z,99016.28
2022-11-16T06:02:56.145Z,99031.25
2022-11-16T06:05:26.446Z,99017.13
2022-11-16T06:08:10.128Z,99021.97
2022-11-16T06:10:42.508Z,99026.16
2022-11-16T06:13:12.654Z,99025.03
2022-11-16T06:18:27.835Z,99012.84
2022-11-16T06:20:58.529Z,99016.72
2022-11-16T06:23:31.220Z,99015.91
2022-11-16T06:26:01.909Z,99013.13
2022-11-16T06:28:32.908Z,99012.28
2022-11-16T06:31:03.567Z,99003.44
2022-11-16T06:33:34.070Z,98999.81
2022-11-16T06:36:04.297Z,99001.47
2022-11-16T06:38:37.271Z,98996.09
2022-11-16T06:41:07.920Z,99008.25
2022-11-16T06:43:38.013Z,99006.63
2022-11-16T06:46:08.848Z,99006.88
2022-11-16T06:48:38.895Z,99007.41
2022-11-16T06:51:09.264Z,99001.47
2022-11-16T06:53:41.977Z,98999.50
2022-11-16T06:56:16.477Z,98996.09
2022-11-16T06:58:46.560Z,98989.81
2022-11-16T07:01:16.766Z,98990.63
2022-11-16T07:03:47.875Z,98986.91
2022-11-16T07:06:18.000Z,98982.88
2022-11-16T07:08:50.730Z,98975.38
2022-11-16T07:11:21.071Z,98975.94
2022-11-16T07:13:51.295Z,98977.47
2022-11-16T07:16:22.186Z,98970.09
2022-11-16T07:18:52.173Z,98975.63
2022-11-16T07:21:22.483Z,98967.56
2022-11-16T07:23:55.929Z,98970.50
2022-11-16T07:26:26.394Z,98960.09
2022-11-16T07:28:56.555Z,98966.34
2022-11-16T07:31:29.578Z,98963.41
2022-11-16T07:33:59.679Z,98963.28
2022-11-16T07:36:30.151Z,98965.22
2022-11-16T07:39:03.355Z,98955.66
2022-11-16T07:41:33.584Z,98958.28
2022-11-16T07:44:06.429Z,98956.34
2022-11-16T07:46:47.580Z,98953.47
2022-11-16T07:49:19.603Z,98959.66
2022-11-16T07:51:50.408Z,98961.31
2022-11-16T07:54:23.116Z,98959.81
2022-11-16T07:56:53.244Z,98961.31
2022-11-16T07:59:23.614Z,98952.88
2022-11-16T08:01:55.510Z,98956.75
2022-11-16T08:04:25.875Z,98936.22
2022-11-16T08:06:56.150Z,98943.44
2022-11-16T08:09:29.084Z,98942.19
2022-11-16T08:11:59.254Z,98939.56
2022-11-16T08:14:29.447Z,98936.78
2022-11-16T08:16:59.617Z,98948.03
2022-11-16T08:19:30.441Z,98941.13
2022-11-16T08:22:00.756Z,98940.81
2022-11-16T08:24:33.404Z,98936.53
2022-11-16T08:27:03.498Z,98937.81
2022-11-16T08:29:36.226Z,98941.13
2022-11-16T08:32:06.634Z,98940.59
2022-11-16T08:34:37.303Z,98942.94
2022-11-16T08:37:07.489Z,98944.28
2022-11-16T08:39:40.216Z,98937.06
2022-11-16T08:42:10.409Z,98939.84
2022-11-16T08:44:40.613Z,98937.06
2022-11-16T08:47:10.675Z,98935.53
2022-11-16T08:49:43.996Z,98932.47
2022-11-16T08:52:18.540Z,98940.09
2022-11-16T08:54:51.310Z,98937.84
2022-11-16T08:57:21.424Z,98934.91
2022-11-16T08:59:52.026Z,98934.22
2022-11-16T09:02:25.774Z,98932.00
2022-11-16T09:04:55.762Z,98938.19
2022-11-16T09:07:25.872Z,98934.81
2022-11-16T09:09:58.641Z,98926.16
2022-11-16T09:12:28.910Z,98931.06
2022-11-16T09:14:59.028Z,98926.47
2022-11-16T09:17:29.250Z,98928.44
2022-11-16T09:19:59.410Z,98920.75
2022-11-16T09:22:29.523Z,98921.88
2022-11-16T09:25:02.354Z,98927.00
2022-11-16T09:27:32.562Z,98923.28
2022-11-16T09:30:02.683Z,98919.22
2022-11-16T09:32:34.143Z,98924.06
2022-11-16T09:35:04.196Z,98911.47
2022-11-16T09:37:34.213Z,98906.75
2022-11-16T09:40:07.774Z,98906.56
2022-11-16T09:42:51.727Z,98893.28
2022-11-16T09:45:27.728Z,98901.66
2022-11-16T09:48:02.981Z,98899.84
2022-11-16T09:50:41.577Z,98895.25
2022-11-16T09:53:23.660Z,98893.25
2022-11-16T09:55:59.270Z,98888.34
2022-11-16T09:58:34.798Z,98878.53
2022-11-16T10:01:10.541Z,98887.97
2022-11-16T10:03:46.323Z,98879.38
2022-11-16T10:06:23.879Z,98869.38
2022-11-16T10:08:56.830Z,98866.44
2022-11-16T10:11:49.636Z,98855.56
2022-11-16T10:14:32.507Z,98849.81
2022-11-16T10:17:09.518Z,98841.06
2022-11-16T10:19:50.740Z,98843.56
2022-11-16T10:22:33.752Z,98840.03
2022-11-16T10:25:09.991Z,98840.41
2022-11-16T10:27:55.243Z,98831.53
2022-11-16T10:30:25.978Z,98829.19
2022-11-16T10:33:02.830Z,98820.69
2022-11-16T10:35:40.512Z,98822.72
2022-11-16T10:38:15.909Z,98822.34
2022-11-16T10:40:52.735Z,98826.19
2022-11-16T10:43:28.486Z,98816.63
2022-11-16T10:46:03.174Z,98811.50
2022-11-16T10:48:41.379Z,98810.13
2022-11-16T10:51:12.858Z,98805.16
2022-11-16T10:53:44.757Z,98797.09
2022-11-16T10:56:20.372Z,98798.38
2022-11-16T10:58:59.837Z,98803.34
2022-11-16T11:01:38.871Z,98799.66
2022-11-16T11:04:26.075Z,98797.00
2022-11-16T11:06:58.076Z,98806.13
2022-11-16T11:09:33.500Z,98796.94
2022-11-16T11:12:19.510Z,98799.28
2022-11-16T11:15:07.863Z,98780.31
2022-11-16T11:17:39.182Z,98786.84
2022-11-16T11:20:22.681Z,98783.75
2022-11-16T11:22:57.157Z,98779.75
2022-11-16T11:25:32.317Z,98785.50
2022-11-16T11:28:08.875Z,98779.34
2022-11-16T11:30:42.653Z,98772.22
2022-11-16T11:33:14.425Z,98777.28
2022-11-16T11:35:44.721Z,98772.03
2022-11-16T11:38:18.208Z,98762.63
2022-11-16T11:41:00.201Z,98762.75
2022-11-16T11:43:33.850Z,98756.50
2022-11-16T11:46:16.713Z,98752.97
2022-11-16T11:48:55.007Z,98747.91
2022-11-16T11:51:30.517Z,98755.28
2022-11-16T11:54:01.983Z,98751.06
2022-11-16T11:56:34.844Z,98748.69
2022-11-16T11:59:07.243Z,98745.78
2022-11-16T12:02:04.258Z,98746.16
2022-11-16T12:05:01.237Z,98751.97
2022-11-16T12:07:54.774Z,98742.03
2022-11-16T12:10:34.515Z,98736.16
2022-11-16T12:13:23.814Z,98727.13
2022-11-16T12:16:05.993Z,98729.28
2022-11-16T12:18:56.036Z,98733.88
2022-11-16T12:21:35.661Z,98723.13
2022-11-16T12:24:17.229Z,98734.56
2022-11-16T12:27:00.221Z,98727.88
2022-11-16T12:29:38.942Z,98722.22
2022-11-16T12:32:41.151Z,98720.06
2022-11-16T12:35:44.379Z,98721.72
2022-11-16T12:38:28.006Z,98716.59
2022-11-16T12:41:14.590Z,98717.75
2022-11-16T12:43:53.249Z,98708.22
2022-11-16T12:46:30.356Z,98705.44
2022-11-16T12:49:34.340Z,98700.47
2022-11-16T12:52:23.977Z,98704.19
2022-11-16T12:55:29.814Z,98697.84
2022-11-16T12:58:10.409Z,98697.91
2022-11-16T13:00:56.970Z,98695.88
2022-11-16T13:03:34.671Z,98695.56
2022-11-16T13:06:07.586Z,98697.38
2022-11-16T13:08:49.843Z,98700.53
2022-11-16T13:11:27.614Z,98689.63
2022-11-16T13:14:02.135Z,98695.19
2022-11-16T13:16:33.517Z,98689.09
2022-11-16T13:19:06.879Z,98689.94
2022-11-16T13:21:48.798Z,98684.94
2022-11-16T13:24:44.115Z,98686.56
2022-11-16T13:27:25.057Z,98684.09
2022-11-16T13:30:03.622Z,98680.09
2022-11-16T13:32:50.004Z,98680.78
2022-11-16T13:35:21.128Z,98678.97
2022-11-16T13:37:52.702Z,98682.47
2022-11-16T13:40:31.367Z,98676.19
2022-11-16T13:43:06.549Z,98684.63
2022-11-16T13:45:44.711Z,98681.97
2022-11-16T13:48:22.468Z,98675.28
2022-11-16T13:50:56.902Z,98685.00
2022-11-16T13:56:29.386Z,98668.50
2022-11-16T13:59:01.123Z,98664.34
2022-11-16T14:02:01.069Z,98664.25
2022-11-16T14:04:58.789Z,98641.19
2022-11-16T14:07:35.104Z,98653.47
2022-11-16T14:10:08.161Z,98656.00
2022-11-16T14:13:00.006Z,98653.50
2022-11-16T14:15:40.167Z,98645.31
2022-11-16T14:18:38.290Z,98644.66
2022-11-16T14:21:17.620Z,98656.38
2022-11-16T14:24:11.038Z,98645.03
2022-11-16T14:26:50.213Z,98644.66
2022-11-16T14:29:43.031Z,98637.59
2022-11-16T14:32:23.446Z,98639.91
2022-11-16T14:34:58.636Z,98643.22
2022-11-16T14:37:37.927Z,98641.88
2022-11-16T14:40:11.742Z,98641.56
2022-11-16T14:43:09.996Z,98645.03
2022-11-16T14:45:42.012Z,98632.16
2022-11-16T14:48:18.954Z,98635.94
2022-11-16T14:51:05.652Z,98635.25
2022-11-16T14:53:38.776Z,98633.59
2022-11-16T14:56:11.670Z,98631.34
2022-11-16T14:58:42.567Z,98620.19
2022-11-16T15:01:17.577Z,98626.53
2022-11-16T15:03:55.952Z,98619.75
2022-11-16T15:06:29.727Z,98618.25
2022-11-16T15:09:03.676Z,98613.66
2022-11-16T15:11:49.235Z,98615.53
2022-11-16T15:14:25.742Z,98616.75
2022-11-16T15:16:57.384Z,98605.81
2022-11-16T15:19:28.439Z,98619.66
2022-11-16T15:22:03.492Z,98611.59
2022-11-16T15:24:35.249Z,98610.72
2022-11-16T15:27:15.246Z,98618.81
2022-11-16T15:29:45.436Z,98610.41
2022-11-16T15:32:19.447Z,98610.75
2022-11-16T15:34:53.818Z,98608.00
2022-11-16T15:37:35.362Z,98608.13
2022-11-16T15:40:06.166Z,98607.13
2022-11-16T15:42:36.437Z,98602.84
2022-11-16T15:45:15.775Z,98597.31
2022-11-16T15:47:47.305Z,98595.34
2022-11-16T15:50:23.275Z,98602.03
2022-11-16T15:52:59.833Z,98605.88
2022-11-16T15:55:39.319Z,98596.03
2022-11-16T15:58:16.846Z,98602.84
2022-11-16T16:00:51.338Z,98603.84
2022-11-16T16:03:24.776Z,98593.03
2022-11-16T16:05:55.901Z,98589.56
2022-11-16T16:08:34.519Z,98591.63
2022-11-16T16:11:08.213Z,98583.44
2022-11-16T16:13:40.649Z,98589.81
2022-11-16T16:16:23.771Z,98593.84
2022-11-16T16:18:59.169Z,98582.59
2022-11-16T16:21:42.670Z,98581.34
2022-11-16T16:24:37.389Z,98580.53
2022-11-16T16:27:16.961Z,98577.88
2022-11-16T16:29:57.639Z,98577.88
2022-11-16T16:32:28.332Z,98575.31
2022-11-16T16:34:59.767Z,98570.41
2022-11-16T16:37:31.912Z,98565.53
2022-11-16T16:40:06.517Z,98578.47
2022-11-16T16:42:36.681Z,98565.84
2022-11-16T16:45:07.699Z,98572.22
2022-11-16T16:47:38.014Z,98564.03
2022-11-16T16:50:08.888Z,98563.88
2022-11-16T16:52:41.796Z,98562.75
2022-11-16T16:55:14.612Z,98562.44
2022-11-16T16:57:44.754Z,98564.25
2022-11-16T17:00:16.033Z,98567.56
2022-11-16T17:02:46.650Z,98569.38
2022-11-16T17:05:16.913Z,98565.59
2022-11-16T17:07:47.212Z,98557.16
2022-11-16T17:10:20.436Z,98559.50
2022-11-16T17:12:50.784Z,98561.00
2022-11-16T17:15:27.093Z,98555.88
2022-11-16T17:17:57.293Z,98561.16
2022-11-16T17:20:27.705Z,98547.81
2022-11-16T17:22:58.494Z,98549.63
2022-11-16T17:25:33.107Z,98547.66
2022-11-16T17:28:03.297Z,98544.34
2022-11-16T17:30:33.905Z,98536.28
2022-11-16T17:33:04.092Z,98533.81
2022-11-16T17:35:34.526Z,98535.47
2022-11-16T17:38:04.903Z,98536.16
2022-11-16T17:40:37.683Z,98536.97
2022-11-16T17:43:07.931Z,98537.66
2022-11-16T17:45:38.050Z,98534.19
2022-11-16T17:48:08.863Z,98540.13
2022-11-16T17:50:39.139Z,98537.97
2022-11-16T17:53:09.535Z,98538.66
2022-11-16T17:55:42.367Z,98538.50
2022-11-16T17:58:12.741Z,98534.19
2022-11-16T18:00:52.456Z,98534.03
2022-11-16T18:03:24.189Z,98522.84
2022-11-16T18:05:54.411Z,98522.53
2022-11-16T18:08:24.527Z,98527.13
2022-11-16T18:10:57.214Z,98522.31
2022-11-16T18:13:27.339Z,98512.72
2022-11-16T18:15:57.451Z,98514.75
2022-11-16T18:18:27.938Z,98513.41
2022-11-16T18:20:58.376Z,98512.28
2022-11-16T18:23:28.718Z,98511.94
2022-11-16T18:26:03.338Z,98511.78
2022-11-16T18:28:33.631Z,98512.94
2022-11-16T18:31:07.598Z,98512.75
2022-11-16T18:33:38.693Z,98510.63
2022-11-16T18:36:10.163Z,98500.09
2022-11-16T18:38:40.388Z,98497.44
2022-11-16T18:41:19.887Z,98494.66
2022-11-16T18:43:54.831Z,98487.06
2022-11-16T18:46:27.105Z,98491.03
2022-11-16T18:48:58.160Z,98491.88
2022-11-16T18:51:30.046Z,98489.38
2022-11-16T18:54:00.325Z,98490.22
2022-11-16T18:56:33.040Z,98490.72
2022-11-16T18:59:03.360Z,98485.91
2022-11-16T19:01:36.189Z,98496.31
2022-11-16T19:04:07.706Z,98497.13
2022-11-16T19:06:37.924Z,98495.31
2022-11-16T19:09:09.826Z,98490.88
2022-11-16T19:11:42.678Z,98488.75
2022-11-16T19:14:12.901Z,98494.50
2022-11-16T19:16:52.540Z,98484.78
2022-11-16T19:19:25.503Z,98487.25
2022-11-16T19:21:57.076Z,98488.56
2022-11-16T19:24:27.367Z,98481.63
2022-11-16T19:27:00.125Z,98488.88
2022-11-16T19:29:30.301Z,98490.69
2022-11-16T19:32:00.462Z,98487.06
2022-11-16T19:34:33.478Z,98485.41
2022-11-16T19:37:03.903Z,98492.50
2022-11-16T19:39:34.220Z,98485.75
2022-11-16T19:42:07.232Z,98488.38
2022-11-16T19:44:37.517Z,98483.28
2022-11-16T19:47:08.368Z,98485.09
2022-11-16T19:49:41.539Z,98478.81
2022-11-16T19:52:11.724Z,98482.59
2022-11-16T19:54:42.003Z,98484.09
2022-11-16T19:57:17.031Z,98490.19
2022-11-16T19:59:47.185Z,98486.72
2022-11-16T20:02:17.641Z,98486.72
2022-11-16T20:04:47.776Z,98486.88
2022-11-16T20:07:18.339Z,98485.22
2022-11-16T20:09:53.255Z,98490.00
2022-11-16T20:12:27.045Z,98478.47
2022-11-16T20:14:57.166Z,98479.91
2022-11-16T20:17:27.321Z,98482.41
2022-11-16T20:19:57.823Z,98477.94
2022-11-16T20:22:27.945Z,98472.69
2022-11-16T20:24:58.188Z,98469.53
2022-11-16T20:27:30.900Z,98466.22
2022-11-16T20:30:06.428Z,98465.41
2022-11-16T20:32:39.344Z,98466.88
2022-11-16T20:35:11.799Z,98463.59
2022-11-16T20:37:46.628Z,98463.59
2022-11-16T20:40:19.465Z,98466.38
2022-11-16T20:42:52.764Z,98461.25
2022-11-16T20:45:23.162Z,98463.06
2022-11-16T20:47:58.771Z,98461.94
2022-11-16T20:50:28.974Z,98455.00
2022-11-16T20:52:59.350Z,98456.00
2022-11-16T20:55:29.511Z,98451.66
2022-11-16T20:58:02.270Z,98453.63
2022-11-16T21:00:32.372Z,98444.41
2022-11-16T21:03:02.495Z,98446.22
2022-11-16T21:05:32.619Z,98435.00
2022-11-16T21:08:02.935Z,98438.31
2022-11-16T21:10:36.448Z,98433.72
2022-11-16T21:13:22.528Z,98426.94
2022-11-16T21:15:59.709Z,98426.94
2022-11-16T21:18:31.011Z,98429.38
2022-11-16T21:21:02.454Z,98417.50
2022-11-16T21:23:35.516Z,98422.16
2022-11-16T21:26:07.093Z,98418.00
2022-11-16T21:28:40.342Z,98410.28
2022-11-16T21:31:14.007Z,98411.56
2022-11-16T21:33:44.466Z,98413.38
2022-11-16T21:36:16.809Z,98412.84
2022-11-16T21:38:47.584Z,98412.38
2022-11-16T21:41:19.634Z,98414.03
2022-11-16T21:43:52.549Z,98414.72
2022-11-16T21:46:24.946Z,98411.09
2022-11-16T21:48:56.820Z,98410.44
2022-11-16T21:51:28.727Z,98413.06
2022-11-16T21:53:58.837Z,98403.19
2022-11-16T21:56:30.566Z,98403.19
2022-11-16T21:59:03.491Z,98392.81
2022-11-16T22:01:53.685Z,98405.66
2022-11-16T22:04:36.145Z,98394.31
2022-11-16T22:07:18.704Z,98382.13
2022-11-16T22:09:48.892Z,98381.44
2022-11-16T22:12:18.973Z,98380.56
2022-11-16T22:14:51.712Z,98381.41
2022-11-16T22:17:21.843Z,98383.56
2022-11-16T22:19:52.011Z,98378.00
2022-11-16T22:22:22.137Z,98392.28
2022-11-16T22:24:52.530Z,98390.63
2022-11-16T22:27:22.834Z,98382.75
2022-11-16T22:29:55.650Z,98381.09
2022-11-16T22:32:25.936Z,98374.31
2022-11-16T22:34:55.946Z,98372.66
2022-11-16T22:37:26.051Z,98375.31
2022-11-16T22:39:56.036Z,98375.81
2022-11-16T22:42:26.166Z,98367.59
2022-11-16T22:44:58.863Z,98367.75
2022-11-16T22:47:28.883Z,98370.56
2022-11-16T22:49:59.018Z,98378.28
2022-11-16T22:52:29.092Z,98373.03
2022-11-16T22:54:59.156Z,98372.88
2022-11-16T22:57:29.249Z,98367.28
2022-11-16T23:00:02.170Z,98369.63
2022-11-16T23:02:34.038Z,98366.16
2022-11-16T23:05:06.716Z,98362.38
2022-11-16T23:07:36.924Z,98359.91
2022-11-16T23:10:08.081Z,98359.75
2022-11-16T23:12:50.564Z,98353.81
2022-11-16T23:15:35.663Z,98361.41
2022-11-16T23:18:05.767Z,98355.97
2022-11-16T23:20:49.721Z,98354.00
2022-11-16T23:23:42.099Z,98369.66
2022-11-16T23:26:28.784Z,98365.38
2022-11-16T23:29:17.377Z,98363.72
2022-11-16T23:31:57.363Z,98353.84
2022-11-16T23:34:41.559Z,98352.03
2022-11-16T23:37:11.619Z,98353.66
2022-11-16T23:39:41.751Z,98356.28
2022-11-16T23:42:24.779Z,98348.38
2022-11-16T23:44:54.838Z,98348.38
2022-11-16T23:47:27.445Z,98339.69
2022-11-16T23:49:57.510Z,98345.94
2022-11-16T23:52:27.506Z,98348.38
2022-11-16T23:54:57.628Z,98346.59
2022-11-16T23:57:27.803Z,98342.66
2022-11-16T23:59:58.007Z,98344.28
